Time;durP1;ratioP1;P1;durP2;ratioP2;P2;SDS_P1;SDS_P2;PMS_P1;PMS_P2;Temp;Humidity;BMP_temperature;BMP_pressure;BME280_temperature;BME280_humidity;BME280_pressure;Samples;Min_cycle;Max_cycle;Signal;HPM_P1;HPM_P2
2023/10/12 00:01:57;;;;;;;6.40;4.13;;;;;;;;;;4956956;28;20920;-62
2023/10/12 00:05:22;;;;;;;6.60;5.10;;;;;;;;;;4958227;28;20880;-62
2023/10/12 00:07:36;;;;;;;7.50;4.83;;;;;;;;;;4948327;28;20426;-61
2023/10/12 00:12:42;;;;;;;10.37;5.07;;;;;;;;;;4957697;28;20405;-61
2023/10/12 00:15:23;;;;;;;10.50;4.40;;;;;;;;;;4957533;28;20468;-61
2023/10/12 00:17:50;;;;;;;6.53;5.10;;;;;;;;;;4957941;28;20459;-61
2023/10/12 00:22:55;;;;;;;4.90;4.40;;;;;;;;;;4957603;29;20808;-61
2023/10/12 00:25:21;;;;;;;10.13;4.87;;;;;;;;;;4957363;29;20422;-61
2023/10/12 00:27:51;;;;;;;5.97;4.10;;;;;;;;;;4955475;28;20802;-61
2023/10/12 00:30:17;;;;;;;13.23;5.40;;;;;;;;;;4958083;28;20459;-61
2023/10/12 00:32:43;;;;;;;6.27;4.83;;;;;;;;;;4957111;28;20811;-61
2023/10/12 00:35:14;;;;;;;10.23;4.90;;;;;;;;;;4957138;28;20565;-61
2023/10/12 00:37:41;;;;;;;7.33;4.67;;;;;;;;;;4957141;28;20418;-61
2023/10/12 00:40:30;;;;;;;12.97;4.90;;;;;;;;;;4956742;28;20409;-61
2023/10/12 00:43:00;;;;;;;5.23;4.77;;;;;;;;;;4957081;28;20395;-61
2023/10/12 00:45:29;;;;;;;6.93;4.33;;;;;;;;;;4957161;28;20426;-61
2023/10/12 00:48:06;;;;;;;8.80;4.73;;;;;;;;;;4957072;28;20972;-61
2023/10/12 00:50:32;;;;;;;6.23;4.90;;;;;;;;;;4956944;28;20968;-61
2023/10/12 00:53:14;;;;;;;7.17;5.27;;;;;;;;;;4956053;28;20485;-62
2023/10/12 00:55:45;;;;;;;8.73;5.00;;;;;;;;;;4955380;29;20522;-61
2023/10/12 00:58:14;;;;;;;6.50;4.80;;;;;;;;;;4955378;28;20445;-61
2023/10/12 01:00:51;;;;;;;12.70;5.23;;;;;;;;;;4955270;28;20426;-61
2023/10/12 01:06:12;;;;;;;8.30;4.93;;;;;;;;;;4956175;28;20824;-61
2023/10/12 01:08:43;;;;;;;8.30;4.83;;;;;;;;;;4956603;28;20498;-61
2023/10/12 01:14:10;;;;;;;10.63;5.10;;;;;;;;;;4956671;28;20477;-61
2023/10/12 01:19:22;;;;;;;8.00;4.60;;;;;;;;;;4956539;28;20499;-61
2023/10/12 01:21:48;;;;;;;9.90;5.43;;;;;;;;;;4956547;28;20909;-61
2023/10/12 01:24:15;;;;;;;13.63;4.70;;;;;;;;;;4956396;29;20416;-61
2023/10/12 01:26:53;;;;;;;4.83;4.33;;;;;;;;;;4956117;28;20971;-61
2023/10/12 01:29:21;;;;;;;8.53;4.50;;;;;;;;;;4956244;28;20473;-61
2023/10/12 01:32:05;;;;;;;11.27;4.63;;;;;;;;;;4956374;28;20458;-61
2023/10/12 01:34:36;;;;;;;5.70;4.20;;;;;;;;;;4956681;28;20592;-60
2023/10/12 01:37:21;;;;;;;12.47;5.03;;;;;;;;;;4956159;28;20422;-61
2023/10/12 01:40:42;;;;;;;21.70;5.50;;;;;;;;;;4955567;28;20525;-61
2023/10/12 01:45:24;;;;;;;8.10;4.20;;;;;;;;;;4956022;28;20461;-61
2023/10/12 01:47:55;;;;;;;11.00;5.07;;;;;;;;;;4955640;28;20435;-61
2023/10/12 01:50:24;;;;;;;8.60;4.73;;;;;;;;;;4954261;28;20429;-61
2023/10/12 01:52:52;;;;;;;8.77;5.83;;;;;;;;;;4955836;28;20513;-61
2023/10/12 01:55:28;;;;;;;5.67;4.43;;;;;;;;;;4956049;28;20472;-61
2023/10/12 01:57:54;;;;;;;5.67;4.50;;;;;;;;;;4955794;28;20453;-61
2023/10/12 02:00:26;;;;;;;5.93;5.00;;;;;;;;;;4955400;28;20849;-60
2023/10/12 02:05:46;;;;;;;6.93;5.37;;;;;;;;;;4955606;28;20414;-61
2023/10/12 02:08:12;;;;;;;12.43;5.53;;;;;;;;;;4955422;28;20469;-61
2023/10/12 02:10:43;;;;;;;8.97;5.90;;;;;;;;;;4955255;28;20478;-61
2023/10/12 02:13:10;;;;;;;7.93;5.70;;;;;;;;;;4954624;28;20414;-61
2023/10/12 02:15:37;;;;;;;9.50;5.67;;;;;;;;;;4955279;28;20509;-61
2023/10/12 02:18:10;;;;;;;12.03;5.63;;;;;;;;;;4955106;28;20438;-60
2023/10/12 02:20:42;;;;;;;7.57;6.47;;;;;;;;;;4955470;28;20422;-60
2023/10/12 02:23:12;;;;;;;7.07;5.40;;;;;;;;;;4954243;28;20419;-60
2023/10/12 02:25:50;;;;;;;8.77;6.00;;;;;;;;;;4955813;28;20429;-61
2023/10/12 02:28:22;;;;;;;12.57;6.43;;;;;;;;;;4955625;28;20944;-61
2023/10/12 02:30:53;;;;;;;12.13;5.40;;;;;;;;;;4955622;28;20929;-60
2023/10/12 02:33:23;;;;;;;11.30;5.43;;;;;;;;;;4954181;29;20803;-61
2023/10/12 02:35:50;;;;;;;11.60;5.53;;;;;;;;;;4955525;28;20443;-61
2023/10/12 02:38:17;;;;;;;9.33;5.00;;;;;;;;;;4955115;28;20893;-61
2023/10/12 02:40:45;;;;;;;8.20;5.17;;;;;;;;;;4955110;28;20444;-61
2023/10/12 02:43:11;;;;;;;8.80;5.23;;;;;;;;;;4955056;28;20448;-61
2023/10/12 02:45:42;;;;;;;13.23;5.40;;;;;;;;;;4953748;28;20443;-61
2023/10/12 02:48:22;;;;;;;7.33;4.80;;;;;;;;;;4955278;28;20422;-61
2023/10/12 02:50:57;;;;;;;17.50;5.57;;;;;;;;;;4955275;28;20422;-61
2023/10/12 02:53:30;;;;;;;7.90;4.70;;;;;;;;;;4954808;28;20756;-61
2023/10/12 02:56:01;;;;;;;6.63;5.17;;;;;;;;;;4955324;28;20921;-61
2023/10/12 02:58:30;;;;;;;9.67;5.70;;;;;;;;;;4955033;28;20430;-61
2023/10/12 03:01:12;;;;;;;10.13;4.40;;;;;;;;;;4954082;29;20973;-61
2023/10/12 03:03:39;;;;;;;13.80;5.30;;;;;;;;;;4954934;28;20445;-61
2023/10/12 03:06:12;;;;;;;6.57;5.07;;;;;;;;;;4955125;28;20500;-61
2023/10/12 03:11:25;;;;;;;6.03;5.43;;;;;;;;;;4955068;28;20939;-61
2023/10/12 03:14:12;;;;;;;8.47;6.03;;;;;;;;;;4954229;28;20968;-61
2023/10/12 03:16:43;;;;;;;7.30;4.40;;;;;;;;;;4954656;28;20855;-61
2023/10/12 03:19:21;;;;;;;12.50;4.97;;;;;;;;;;4954532;28;20424;-61
2023/10/12 03:21:47;;;;;;;14.20;4.60;;;;;;;;;;4954548;28;20424;-61
2023/10/12 03:24:17;;;;;;;10.97;6.10;;;;;;;;;;4953570;28;20787;-61
2023/10/12 03:26:55;;;;;;;8.63;5.07;;;;;;;;;;4954555;29;20428;-61
2023/10/12 03:29:22;;;;;;;7.83;4.53;;;;;;;;;;4955480;28;20446;-61
2023/10/12 03:34:30;;;;;;;6.40;3.80;;;;;;;;;;4959236;28;20957;-61
2023/10/12 03:36:58;;;;;;;6.37;4.93;;;;;;;;;;4958054;28;20435;-61
2023/10/12 03:44:36;;;;;;;6.90;4.53;;;;;;;;;;4977583;28;20426;-61
2023/10/12 03:52:39;;;;;;;4.43;4.03;;;;;;;;;;4977130;28;20785;-62
2023/10/12 04:02:42;;;;;;;9.37;3.90;;;;;;;;;;4976942;28;20802;-61
2023/10/12 04:08:17;;;;;;;5.87;4.97;;;;;;;;;;4977317;28;20504;-61
2023/10/12 04:18:42;;;;;;;8.37;4.77;;;;;;;;;;4977276;28;20492;-61
2023/10/12 04:21:10;;;;;;;6.20;4.57;;;;;;;;;;4977557;28;20949;-61
2023/10/12 04:23:49;;;;;;;5.00;4.27;;;;;;;;;;4977425;28;20445;-62
2023/10/12 04:28:56;;;;;;;6.93;3.47;;;;;;;;;;4977422;28;20453;-61
2023/10/12 04:39:15;;;;;;;7.37;4.30;;;;;;;;;;4977122;28;20455;-62
2023/10/12 04:47:05;;;;;;;6.77;5.07;;;;;;;;;;4975811;28;20738;-61
2023/10/12 04:57:32;;;;;;;6.83;4.60;;;;;;;;;;4976581;28;20449;-63
2023/10/12 05:07:55;;;;;;;10.20;4.63;;;;;;;;;;4976197;28;20805;-61
2023/10/12 05:10:31;;;;;;;6.30;4.57;;;;;;;;;;4975723;28;20418;-61
2023/10/12 05:13:03;;;;;;;6.03;4.57;;;;;;;;;;4976115;28;20400;-61
2023/10/12 05:15:39;;;;;;;5.27;4.67;;;;;;;;;;4976503;28;20489;-62
2023/10/12 05:18:06;;;;;;;10.20;4.83;;;;;;;;;;4974544;28;20427;-61
2023/10/12 05:20:32;;;;;;;10.37;4.67;;;;;;;;;;4975647;28;20476;-62
2023/10/12 05:23:02;;;;;;;7.33;5.20;;;;;;;;;;4975779;28;20480;-63
2023/10/12 05:25:48;;;;;;;11.73;4.60;;;;;;;;;;4975647;28;20417;-63
2023/10/12 05:28:15;;;;;;;7.20;5.47;;;;;;;;;;4976116;28;20791;-61
2023/10/12 05:30:49;;;;;;;9.97;5.20;;;;;;;;;;4974071;28;20421;-61
2023/10/12 05:36:09;;;;;;;12.90;4.70;;;;;;;;;;4975421;28;20506;-61
2023/10/12 05:38:49;;;;;;;14.10;5.30;;;;;;;;;;4975324;28;20899;-61
2023/10/12 05:41:34;;;;;;;7.30;4.77;;;;;;;;;;4973763;28;20437;-61
2023/10/12 05:44:02;;;;;;;9.97;4.77;;;;;;;;;;4975207;28;20855;-62
2023/10/12 05:46:33;;;;;;;5.33;4.47;;;;;;;;;;4976003;28;20870;-61
2023/10/12 05:49:02;;;;;;;4.90;4.40;;;;;;;;;;4974569;28;20437;-61
2023/10/12 05:51:30;;;;;;;8.00;4.70;;;;;;;;;;4975003;28;20433;-61
2023/10/12 05:54:02;;;;;;;7.60;4.70;;;;;;;;;;4975398;28;20473;-61
2023/10/12 05:56:34;;;;;;;9.70;4.80;;;;;;;;;;4976069;28;20465;-62
2023/10/12 05:59:00;;;;;;;5.33;4.83;;;;;;;;;;4975498;28;20577;-61
2023/10/12 06:01:32;;;;;;;12.93;7.67;;;;;;;;;;4975212;28;20962;-60
2023/10/12 06:04:01;;;;;;;9.07;4.60;;;;;;;;;;4975648;28;20900;-61
2023/10/12 06:06:31;;;;;;;8.73;4.70;;;;;;;;;;4975009;28;20950;-62
2023/10/12 06:08:59;;;;;;;19.73;10.90;;;;;;;;;;4975543;28;20507;-61
2023/10/12 06:11:30;;;;;;;30.47;15.30;;;;;;;;;;4975344;28;20420;-61
2023/10/12 06:13:59;;;;;;;10.93;5.27;;;;;;;;;;4974917;28;20505;-61
2023/10/12 06:16:28;;;;;;;6.00;4.73;;;;;;;;;;4974713;28;20432;-61
2023/10/12 06:18:54;;;;;;;7.25;4.93;;;;;;;;;;4972294;28;20932;-61
2023/10/12 06:21:24;;;;;;;8.60;4.50;;;;;;;;;;4974435;28;20178;-61
2023/10/12 06:23:50;;;;;;;5.50;4.93;;;;;;;;;;4974286;28;20471;-61
2023/10/12 06:26:29;;;;;;;9.53;5.00;;;;;;;;;;4973941;28;20428;-60
2023/10/12 06:29:07;;;;;;;6.13;4.60;;;;;;;;;;4973819;28;20952;-62
2023/10/12 06:31:33;;;;;;;5.10;4.60;;;;;;;;;;4974065;28;20435;-61
2023/10/12 06:34:03;;;;;;;6.50;3.97;;;;;;;;;;4974456;28;20457;-61
2023/10/12 06:36:38;;;;;;;12.77;5.60;;;;;;;;;;4974867;28;20412;-61
2023/10/12 06:46:48;;;;;;;7.27;4.93;;;;;;;;;;4975332;28;20428;-61
2023/10/12 06:49:18;;;;;;;5.20;4.40;;;;;;;;;;4974701;28;20447;-61
2023/10/12 06:51:54;;;;;;;7.00;4.60;;;;;;;;;;4974541;28;20909;-61
2023/10/12 06:54:39;;;;;;;4.83;4.23;;;;;;;;;;4974298;28;21046;-61
2023/10/12 06:59:52;;;;;;;7.37;4.57;;;;;;;;;;4974590;28;20461;-61
2023/10/12 07:02:24;;;;;;;7.93;4.87;;;;;;;;;;4974028;28;20754;-61
2023/10/12 07:04:55;;;;;;;5.40;4.93;;;;;;;;;;4973887;28;20520;-61
2023/10/12 07:07:27;;;;;;;16.13;5.10;;;;;;;;;;4973848;28;20413;-61
2023/10/12 07:10:30;;;;;;;7.77;4.90;;;;;;;;;;4974486;28;20882;-61
2023/10/12 07:12:49;;;;;;;8.30;5.03;;;;;;;;;;4971878;28;20441;-61
2023/10/12 07:15:22;;;;;;;5.63;4.60;;;;;;;;;;4973478;28;20469;-61
2023/10/12 07:17:51;;;;;;;5.50;4.43;;;;;;;;;;4973829;28;20431;-61
2023/10/12 07:25:43;;;;;;;16.57;5.20;;;;;;;;;;4974249;28;20949;-61
2023/10/12 07:28:16;;;;;;;12.17;6.63;;;;;;;;;;4972781;28;20418;-61
2023/10/12 07:30:43;;;;;;;7.37;5.40;;;;;;;;;;4973899;28;20969;-61
2023/10/12 07:33:09;;;;;;;9.43;4.97;;;;;;;;;;4973874;28;20420;-61
2023/10/12 07:35:36;;;;;;;5.63;5.07;;;;;;;;;;4973656;28;20465;-61
2023/10/12 07:41:01;;;;;;;15.00;5.33;;;;;;;;;;4969147;28;20806;-61
2023/10/12 07:43:31;;;;;;;9.73;5.87;;;;;;;;;;4973729;28;20889;-62
2023/10/12 07:46:09;;;;;;;7.87;4.77;;;;;;;;;;4973342;28;20430;-62
2023/10/12 07:48:45;;;;;;;7.60;5.07;;;;;;;;;;4974132;28;20950;-62
2023/10/12 07:51:59;;;;;;;11.03;4.87;;;;;;;;;;4973666;28;20443;-61
2023/10/12 07:54:25;;;;;;;5.90;4.97;;;;;;;;;;4972028;28;20965;-62
2023/10/12 07:56:52;;;;;;;5.03;4.63;;;;;;;;;;4974235;28;20525;-62
2023/10/12 07:59:22;;;;;;;11.83;5.70;;;;;;;;;;4973897;28;20441;-62
2023/10/12 08:01:50;;;;;;;8.83;5.23;;;;;;;;;;4973673;28;20901;-62
2023/10/12 08:07:08;;;;;;;7.70;5.37;;;;;;;;;;4966307;28;20572;-62
2023/10/12 08:09:47;;;;;;;6.83;5.50;;;;;;;;;;4973700;28;20831;-62
2023/10/12 08:12:25;;;;;;;9.70;5.70;;;;;;;;;;4974107;28;20512;-62
2023/10/12 08:14:54;;;;;;;9.17;5.00;;;;;;;;;;4973707;28;20560;-62
2023/10/12 08:17:33;;;;;;;12.07;4.90;;;;;;;;;;4977599;28;20394;-62
2023/10/12 08:22:46;;;;;;;5.30;4.63;;;;;;;;;;4977097;28;20410;-63
2023/10/12 08:25:27;;;;;;;11.50;5.00;;;;;;;;;;4978426;28;20896;-62
2023/10/12 08:27:53;;;;;;;6.90;5.90;;;;;;;;;;4977390;28;20425;-62
2023/10/12 08:30:23;;;;;;;8.47;5.23;;;;;;;;;;4976971;28;20442;-62
2023/10/12 08:33:08;;;;;;;11.17;5.63;;;;;;;;;;4975823;28;21045;-62
2023/10/12 08:38:33;;;;;;;6.70;4.93;;;;;;;;;;4968207;28;20434;-62
2023/10/12 08:43:47;;;;;;;15.90;5.03;;;;;;;;;;4978056;28;20848;-62
2023/10/12 08:46:20;;;;;;;13.30;5.13;;;;;;;;;;4977602;28;20419;-62
2023/10/12 08:49:05;;;;;;;6.17;5.20;;;;;;;;;;4976920;28;20412;-62
2023/10/12 08:51:34;;;;;;;5.50;4.90;;;;;;;;;;4977540;28;20440;-62
2023/10/12 08:54:07;;;;;;;7.90;4.20;;;;;;;;;;4977392;28;20543;-61
2023/10/12 08:56:35;;;;;;;12.40;4.87;;;;;;;;;;4976908;28;20460;-62
2023/10/12 08:59:04;;;;;;;8.67;4.97;;;;;;;;;;4977081;28;20815;-62
2023/10/12 09:01:35;;;;;;;5.10;4.50;;;;;;;;;;4975090;28;20457;-62
2023/10/12 09:04:03;;;;;;;9.17;5.10;;;;;;;;;;4977624;28;20457;-63
2023/10/12 09:06:52;;;;;;;10.10;5.10;;;;;;;;;;4976980;28;20492;-62
2023/10/12 09:09:48;;;;;;;10.07;5.80;;;;;;;;;;4976022;28;20836;-62
2023/10/12 09:12:01;;;;;;;10.60;5.97;;;;;;;;;;4975782;28;20430;-62
2023/10/12 09:14:32;;;;;;;9.40;5.13;;;;;;;;;;4976251;28;20492;-62
2023/10/12 09:17:04;;;;;;;15.07;5.30;;;;;;;;;;4977021;28;20446;-63
2023/10/12 09:19:31;;;;;;;6.60;4.73;;;;;;;;;;4975244;28;20414;-62
2023/10/12 09:22:00;;;;;;;15.53;5.53;;;;;;;;;;4976651;28;20549;-62
2023/10/12 09:24:29;;;;;;;5.80;4.77;;;;;;;;;;4976800;28;20425;-63
2023/10/12 09:27:00;;;;;;;10.40;5.00;;;;;;;;;;4976937;28;20423;-63
2023/10/12 09:29:40;;;;;;;10.73;4.50;;;;;;;;;;4975954;28;20450;-63
2023/10/12 09:32:24;;;;;;;12.07;5.03;;;;;;;;;;4975413;28;20426;-63
2023/10/12 09:37:51;;;;;;;8.07;4.77;;;;;;;;;;4964267;28;20474;-63
2023/10/12 09:40:29;;;;;;;17.43;6.23;;;;;;;;;;4975545;28;20430;-63
2023/10/12 09:43:06;;;;;;;4.23;3.93;;;;;;;;;;4975682;28;20854;-63
2023/10/12 09:45:41;;;;;;;4.77;4.30;;;;;;;;;;4975370;28;20440;-63
2023/10/12 09:48:12;;;;;;;4.60;4.27;;;;;;;;;;4975176;28;20421;-63
2023/10/12 09:50:40;;;;;;;4.17;3.77;;;;;;;;;;4975100;28;20411;-63
2023/10/12 09:53:13;;;;;;;5.17;4.50;;;;;;;;;;4975398;28;20403;-63
2023/10/12 09:55:45;;;;;;;5.53;4.60;;;;;;;;;;4974929;28;20565;-63
2023/10/12 09:58:15;;;;;;;10.03;5.10;;;;;;;;;;4975438;28;20438;-63
2023/10/12 10:01:01;;;;;;;9.73;4.77;;;;;;;;;;4975619;28;20926;-63
2023/10/12 10:03:35;;;;;;;7.53;4.10;;;;;;;;;;4975459;28;20442;-63
2023/10/12 10:06:18;;;;;;;6.90;4.63;;;;;;;;;;4974838;28;20493;-63
2023/10/12 10:08:45;;;;;;;7.73;4.20;;;;;;;;;;4975500;28;20410;-63
2023/10/12 10:11:12;;;;;;;19.57;4.87;;;;;;;;;;4974640;28;20497;-63
2023/10/12 10:13:49;;;;;;;4.93;4.37;;;;;;;;;;4973046;28;20442;-63
2023/10/12 10:16:17;;;;;;;4.50;4.10;;;;;;;;;;4972901;28;20444;-63
2023/10/12 10:18:48;;;;;;;12.03;5.33;;;;;;;;;;4973524;28;20460;-63
2023/10/12 10:21:22;;;;;;;9.33;4.90;;;;;;;;;;4974732;28;20419;-63
2023/10/12 10:23:52;;;;;;;11.20;3.93;;;;;;;;;;4975199;28;20426;-63
2023/10/12 10:26:40;;;;;;;7.23;4.90;;;;;;;;;;4973739;28;20513;-63
2023/10/12 10:29:05;;;;;;;6.87;4.37;;;;;;;;;;4973924;28;20447;-63
2023/10/12 10:31:35;;;;;;;5.30;4.80;;;;;;;;;;4974154;28;20894;-63
2023/10/12 10:34:06;;;;;;;7.63;4.50;;;;;;;;;;4974336;28;20465;-63
2023/10/12 10:36:35;;;;;;;5.97;4.20;;;;;;;;;;4974297;28;20426;-63
2023/10/12 10:41:46;;;;;;;4.40;4.00;;;;;;;;;;4974380;28;20410;-63
2023/10/12 10:44:21;;;;;;;3.97;3.67;;;;;;;;;;4975169;28;20436;-63
2023/10/12 10:46:57;;;;;;;11.63;4.10;;;;;;;;;;4975158;28;20418;-63
2023/10/12 10:49:30;;;;;;;5.10;4.67;;;;;;;;;;4974602;28;20525;-62
2023/10/12 10:54:33;;;;;;;9.13;4.90;;;;;;;;;;4973829;28;20462;-62
2023/10/12 10:57:04;;;;;;;7.23;4.73;;;;;;;;;;4974527;28;20410;-62
2023/10/12 10:59:31;;;;;;;6.33;4.50;;;;;;;;;;4973357;28;20473;-62
2023/10/12 11:01:59;;;;;;;9.30;4.60;;;;;;;;;;4973901;28;20422;-62
2023/10/12 11:07:13;;;;;;;9.70;5.03;;;;;;;;;;4974324;28;20434;-62
2023/10/12 11:10:08;;;;;;;8.53;4.67;;;;;;;;;;4973708;28;20415;-62
2023/10/12 11:12:32;;;;;;;9.70;4.43;;;;;;;;;;4973049;28;20441;-62
2023/10/12 11:15:00;;;;;;;8.13;4.60;;;;;;;;;;4973391;28;20466;-62
2023/10/12 11:17:30;;;;;;;4.53;4.13;;;;;;;;;;4973147;28;20877;-62
2023/10/12 11:19:57;;;;;;;4.43;4.00;;;;;;;;;;4973642;28;20445;-62
2023/10/12 11:22:26;;;;;;;14.07;5.00;;;;;;;;;;4973594;28;20442;-62
2023/10/12 11:24:54;;;;;;;10.33;4.60;;;;;;;;;;4973780;28;20426;-62
2023/10/12 11:27:36;;;;;;;10.27;4.93;;;;;;;;;;4972422;28;20419;-62
2023/10/12 11:30:18;;;;;;;13.27;4.20;;;;;;;;;;4973363;28;20420;-62
2023/10/12 11:32:54;;;;;;;11.13;4.70;;;;;;;;;;4973304;28;20434;-62
2023/10/12 11:35:40;;;;;;;8.57;5.27;;;;;;;;;;4973308;28;20639;-62
2023/10/12 11:38:14;;;;;;;6.77;4.10;;;;;;;;;;4973230;28;20828;-62
2023/10/12 11:40:40;;;;;;;5.70;4.70;;;;;;;;;;4972968;28;20422;-62
2023/10/12 11:43:06;;;;;;;15.93;4.97;;;;;;;;;;4973654;28;20429;-62
2023/10/12 11:45:35;;;;;;;10.60;4.60;;;;;;;;;;4973087;28;20426;-62
2023/10/12 11:48:24;;;;;;;12.03;3.90;;;;;;;;;;4973008;28;20426;-62
2023/10/12 11:50:50;;;;;;;9.83;4.17;;;;;;;;;;4976226;28;20932;-62
2023/10/12 11:53:17;;;;;;;16.20;4.90;;;;;;;;;;4976789;28;20425;-62
2023/10/12 11:55:44;;;;;;;7.20;4.10;;;;;;;;;;4975742;28;21917;-62
2023/10/12 11:58:13;;;;;;;12.30;4.80;;;;;;;;;;4977109;28;20422;-62
2023/10/12 12:00:44;;;;;;;12.20;4.30;;;;;;;;;;4977073;28;20506;-62
2023/10/12 12:03:13;;;;;;;12.47;4.50;;;;;;;;;;4976069;28;20477;-62
2023/10/12 12:05:41;;;;;;;8.13;4.10;;;;;;;;;;4976853;28;20481;-62
2023/10/12 12:08:25;;;;;;;6.90;4.77;;;;;;;;;;4976926;28;20442;-62
2023/10/12 12:10:56;;;;;;;4.67;4.20;;;;;;;;;;4977276;28;20430;-62
2023/10/12 12:13:25;;;;;;;4.60;3.93;;;;;;;;;;4976880;28;20438;-62
2023/10/12 12:15:57;;;;;;;7.70;4.10;;;;;;;;;;4976723;28;20466;-62
2023/10/12 12:18:23;;;;;;;6.67;3.93;;;;;;;;;;4976386;28;20433;-62
2023/10/12 12:20:56;;;;;;;9.73;4.20;;;;;;;;;;4976141;28;20493;-61
2023/10/12 12:23:27;;;;;;;9.00;4.30;;;;;;;;;;4976717;28;20446;-62
2023/10/12 12:25:59;;;;;;;14.47;5.20;;;;;;;;;;4976734;28;20460;-62
2023/10/12 12:28:32;;;;;;;11.43;4.20;;;;;;;;;;4976574;28;20438;-62
2023/10/12 12:31:00;;;;;;;10.07;5.20;;;;;;;;;;4976781;28;20498;-62
2023/10/12 12:33:29;;;;;;;7.60;4.20;;;;;;;;;;4976264;28;20414;-62
2023/10/12 12:36:00;;;;;;;8.20;4.50;;;;;;;;;;4976178;28;20478;-62
2023/10/12 12:41:05;;;;;;;7.90;3.90;;;;;;;;;;4976246;28;20410;-62
2023/10/12 12:43:33;;;;;;;8.23;4.20;;;;;;;;;;4975936;28;20446;-62
2023/10/12 12:45:59;;;;;;;17.80;4.20;;;;;;;;;;4976231;28;20525;-62
2023/10/12 12:48:25;;;;;;;4.10;3.60;;;;;;;;;;4976123;28;20557;-62
2023/10/12 12:50:51;;;;;;;9.10;3.80;;;;;;;;;;4976084;28;20414;-62
2023/10/12 12:53:20;;;;;;;7.07;4.40;;;;;;;;;;4976183;28;20421;-62
2023/10/12 12:55:47;;;;;;;14.20;4.87;;;;;;;;;;4976217;28;20469;-62
2023/10/12 12:58:17;;;;;;;9.20;3.70;;;;;;;;;;4975520;28;20430;-61
2023/10/12 13:00:46;;;;;;;5.53;4.23;;;;;;;;;;4975542;28;20920;-62
2023/10/12 13:03:12;;;;;;;8.90;3.80;;;;;;;;;;4975604;28;20418;-62
2023/10/12 13:05:38;;;;;;;8.43;3.40;;;;;;;;;;4976538;28;20909;-62
2023/10/12 13:08:07;;;;;;;10.03;4.10;;;;;;;;;;4976006;28;20446;-62
2023/10/12 13:10:33;;;;;;;10.27;3.90;;;;;;;;;;4975934;28;20410;-62
2023/10/12 13:13:01;;;;;;;11.50;4.20;;;;;;;;;;4975583;28;20529;-62
2023/10/12 13:15:27;;;;;;;6.60;3.60;;;;;;;;;;4975405;28;20905;-62
2023/10/12 13:17:56;;;;;;;8.53;3.90;;;;;;;;;;4975871;28;20447;-62
2023/10/12 13:20:22;;;;;;;9.77;4.20;;;;;;;;;;4975652;28;20538;-62
2023/10/12 13:22:51;;;;;;;6.53;3.77;;;;;;;;;;4974501;28;20905;-62
2023/10/12 13:25:20;;;;;;;8.67;4.30;;;;;;;;;;4975028;28;20477;-62
2023/10/12 13:27:49;;;;;;;7.77;4.30;;;;;;;;;;4975562;28;20418;-62
2023/10/12 13:30:15;;;;;;;11.37;3.70;;;;;;;;;;4974316;28;20447;-62
2023/10/12 13:32:48;;;;;;;9.20;3.37;;;;;;;;;;4975837;28;20446;-62
2023/10/12 13:35:31;;;;;;;16.70;3.70;;;;;;;;;;4974908;28;20999;-62
2023/10/12 13:38:04;;;;;;;6.67;3.70;;;;;;;;;;4975335;28;20415;-62
2023/10/12 13:40:30;;;;;;;8.43;3.40;;;;;;;;;;4975074;28;20419;-62
2023/10/12 13:43:15;;;;;;;4.73;3.40;;;;;;;;;;4975295;28;20415;-62
2023/10/12 13:45:51;;;;;;;4.20;3.43;;;;;;;;;;4974694;28;20778;-62
2023/10/12 13:48:18;;;;;;;4.70;3.30;;;;;;;;;;4975484;28;20449;-62
2023/10/12 13:50:49;;;;;;;6.23;3.57;;;;;;;;;;4974776;28;20418;-62
2023/10/12 13:53:15;;;;;;;3.97;3.67;;;;;;;;;;4974492;28;20506;-63
2023/10/12 13:55:41;;;;;;;4.20;3.30;;;;;;;;;;4974691;28;20470;-62
2023/10/12 13:58:10;;;;;;;6.50;3.97;;;;;;;;;;4974501;28;20439;-62
2023/10/12 14:00:38;;;;;;;8.73;3.50;;;;;;;;;;4974848;28;20540;-63
2023/10/12 14:03:10;;;;;;;6.10;4.20;;;;;;;;;;4974587;28;20478;-63
2023/10/12 14:05:40;;;;;;;13.20;3.87;;;;;;;;;;4974180;28;20902;-63
2023/10/12 14:08:10;;;;;;;14.10;3.70;;;;;;;;;;4974392;28;20415;-63
2023/10/12 14:10:44;;;;;;;8.60;3.80;;;;;;;;;;4974639;28;20578;-62
2023/10/12 14:13:13;;;;;;;12.50;3.60;;;;;;;;;;4973666;28;20426;-62
2023/10/12 14:15:43;;;;;;;10.03;4.13;;;;;;;;;;4974693;28;20482;-63
2023/10/12 14:18:11;;;;;;;11.43;4.30;;;;;;;;;;4974348;28;20430;-63
2023/10/12 14:20:38;;;;;;;13.27;3.47;;;;;;;;;;4974832;28;20434;-63
2023/10/12 14:23:07;;;;;;;11.43;3.37;;;;;;;;;;4974066;28;20419;-63
2023/10/12 14:25:50;;;;;;;4.73;3.20;;;;;;;;;;4974341;28;20497;-63
2023/10/12 14:28:17;;;;;;;5.33;3.17;;;;;;;;;;4974776;28;20418;-63
2023/10/12 14:30:46;;;;;;;3.70;3.10;;;;;;;;;;4975843;28;20446;-63
2023/10/12 14:33:15;;;;;;;4.47;3.83;;;;;;;;;;4975603;28;20422;-63
2023/10/12 14:35:41;;;;;;;7.00;3.27;;;;;;;;;;4975226;28;20473;-63
2023/10/12 14:38:13;;;;;;;4.43;3.30;;;;;;;;;;4975379;28;20443;-62
2023/10/12 14:40:45;;;;;;;4.03;3.33;;;;;;;;;;4973956;28;20423;-63
2023/10/12 14:43:12;;;;;;;5.07;3.13;;;;;;;;;;4973833;28;20441;-63
2023/10/12 14:45:57;;;;;;;6.90;3.67;;;;;;;;;;4973959;28;20427;-63
2023/10/12 14:48:24;;;;;;;7.03;3.90;;;;;;;;;;4973818;28;20451;-63
2023/10/12 14:50:58;;;;;;;10.67;3.77;;;;;;;;;;4973845;28;20481;-63
2023/10/12 14:53:28;;;;;;;11.63;3.90;;;;;;;;;;4973894;28;20414;-63
2023/10/12 14:55:54;;;;;;;8.17;3.50;;;;;;;;;;4973483;28;20524;-63
2023/10/12 14:58:20;;;;;;;6.50;3.53;;;;;;;;;;4973515;28;20430;-63
2023/10/12 15:00:47;;;;;;;8.00;4.10;;;;;;;;;;4973991;28;20833;-63
2023/10/12 15:03:16;;;;;;;4.30;3.50;;;;;;;;;;4973324;28;20431;-63
2023/10/12 15:05:44;;;;;;;11.17;4.30;;;;;;;;;;4973556;28;20582;-63
2023/10/12 15:08:11;;;;;;;7.07;3.70;;;;;;;;;;4972494;28;20433;-63
2023/10/12 15:10:43;;;;;;;9.33;3.80;;;;;;;;;;4973691;28;20443;-63
2023/10/12 15:13:16;;;;;;;9.97;4.40;;;;;;;;;;4973832;28;20399;-63
2023/10/12 15:15:47;;;;;;;4.30;3.47;;;;;;;;;;4973360;28;20470;-63
2023/10/12 15:18:16;;;;;;;12.20;3.90;;;;;;;;;;4972368;28;20426;-63
2023/10/12 15:20:45;;;;;;;9.03;3.20;;;;;;;;;;4973562;28;20488;-63
2023/10/12 15:23:14;;;;;;;11.83;4.23;;;;;;;;;;4973298;28;20465;-65
2023/10/12 15:25:42;;;;;;;5.40;3.30;;;;;;;;;;4973040;28;20774;-65
2023/10/12 15:28:11;;;;;;;11.63;3.40;;;;;;;;;;4973153;28;20457;-65
2023/10/12 15:30:43;;;;;;;9.47;3.63;;;;;;;;;;4973653;28;20407;-65
2023/10/12 15:33:10;;;;;;;10.13;3.50;;;;;;;;;;4973368;28;20460;-65
2023/10/12 15:35:39;;;;;;;8.63;3.63;;;;;;;;;;4973292;28;20460;-65
2023/10/12 15:38:05;;;;;;;6.93;3.63;;;;;;;;;;4973331;28;20437;-65
2023/10/12 15:40:36;;;;;;;6.93;3.03;;;;;;;;;;4973069;28;20415;-65
2023/10/12 15:43:05;;;;;;;5.03;3.27;;;;;;;;;;4973650;28;20400;-65
2023/10/12 15:45:38;;;;;;;5.80;3.47;;;;;;;;;;4972990;28;20432;-65
2023/10/12 15:48:05;;;;;;;8.33;4.13;;;;;;;;;;4972727;28;20461;-66
2023/10/12 15:50:34;;;;;;;5.07;3.27;;;;;;;;;;4973134;28;20550;-66
2023/10/12 15:53:00;;;;;;;10.93;3.07;;;;;;;;;;4972836;28;20422;-66
2023/10/12 15:55:25;;;;;;;6.50;3.30;;;;;;;;;;4972607;28;20473;-66
2023/10/12 15:57:52;;;;;;;15.83;4.20;;;;;;;;;;4972974;28;20889;-66
2023/10/12 16:00:24;;;;;;;8.03;3.70;;;;;;;;;;4972684;28;20526;-66
2023/10/12 16:02:50;;;;;;;11.93;3.37;;;;;;;;;;4972852;28;20525;-65
2023/10/12 16:05:16;;;;;;;4.90;3.10;;;;;;;;;;4973390;28;20497;-65
2023/10/12 16:07:43;;;;;;;6.77;3.47;;;;;;;;;;4972846;28;20410;-66
2023/10/12 16:10:09;;;;;;;13.90;3.73;;;;;;;;;;4972894;28;20425;-65
2023/10/12 16:12:35;;;;;;;6.67;3.07;;;;;;;;;;4972691;28;20444;-66
2023/10/12 16:15:02;;;;;;;6.60;3.40;;;;;;;;;;4972932;28;20520;-66
2023/10/12 16:17:28;;;;;;;13.83;4.17;;;;;;;;;;4972879;28;20499;-66
2023/10/12 16:19:54;;;;;;;8.37;3.57;;;;;;;;;;4972122;28;20420;-66
2023/10/12 16:22:21;;;;;;;6.77;3.60;;;;;;;;;;4972798;28;20448;-66
2023/10/12 16:24:47;;;;;;;9.97;3.90;;;;;;;;;;4972690;28;20428;-66
2023/10/12 16:27:14;;;;;;;5.07;3.13;;;;;;;;;;4972700;28;20433;-66
2023/10/12 16:29:40;;;;;;;8.73;3.60;;;;;;;;;;4972973;28;20449;-66
2023/10/12 16:32:08;;;;;;;7.50;3.93;;;;;;;;;;4972709;28;20462;-65
2023/10/12 16:34:34;;;;;;;6.83;3.57;;;;;;;;;;4973161;28;20897;-66
2023/10/12 16:37:01;;;;;;;8.47;3.50;;;;;;;;;;4974538;28;20795;-65
2023/10/12 16:39:28;;;;;;;11.83;3.60;;;;;;;;;;4974893;28;20481;-65
2023/10/12 16:41:57;;;;;;;18.10;3.20;;;;;;;;;;4976114;28;20418;-65
2023/10/12 16:44:24;;;;;;;7.37;3.37;;;;;;;;;;4975763;28;20493;-64
2023/10/12 16:46:53;;;;;;;3.10;2.80;;;;;;;;;;4975732;28;20428;-64
2023/10/12 16:49:19;;;;;;;4.70;3.57;;;;;;;;;;4975941;28;20873;-64
2023/10/12 16:51:50;;;;;;;8.00;3.70;;;;;;;;;;4975990;28;20990;-64
2023/10/12 16:54:16;;;;;;;9.80;3.63;;;;;;;;;;4974386;28;20512;-64
2023/10/12 16:56:43;;;;;;;20.70;4.60;;;;;;;;;;4975465;28;20446;-64
2023/10/12 16:59:19;;;;;;;8.27;3.67;;;;;;;;;;4962062;28;20907;-64
2023/10/12 17:01:45;;;;;;;6.37;3.60;;;;;;;;;;4956573;28;20474;-64
2023/10/12 17:04:28;;;;;;;9.93;4.13;;;;;;;;;;4956195;29;20419;-64
2023/10/12 17:06:54;;;;;;;6.70;3.70;;;;;;;;;;4954790;29;20486;-65
2023/10/12 17:09:22;;;;;;;16.30;3.83;;;;;;;;;;4956426;28;20836;-65
2023/10/12 17:11:50;;;;;;;8.10;4.00;;;;;;;;;;4956262;28;20443;-65
2023/10/12 17:14:16;;;;;;;4.57;3.27;;;;;;;;;;4956652;28;20475;-65